Time;durP1;ratioP1;P1;durP2;ratioP2;P2;SDS_P1;SDS_P2;PMS_P1;PMS_P2;Temp;Humidity;BMP_temperature;BMP_pressure;BME280_temperature;BME280_humidity;BME280_pressure;Samples;Min_cycle;Max_cycle;Signal;HPM_P1;HPM_P2
2022/09/25 00:00:37;;;;;;;18.90;17.40;;;13.90;99.90;;;;;;6240662;22;20435;-77
2022/09/25 00:03:04;;;;;;;19.53;17.83;;;13.70;99.90;;;;;;6249679;22;20452;-76
2022/09/25 00:05:31;;;;;;;20.37;18.67;;;13.70;99.90;;;;;;6239007;22;20451;-76
2022/09/25 00:07:58;;;;;;;18.23;16.83;;;13.60;99.90;;;;;;6223361;23;20440;-76
2022/09/25 00:10:28;;;;;;;18.77;17.20;;;13.60;99.90;;;;;;6236390;22;20451;-77
2022/09/25 00:12:55;;;;;;;18.23;16.80;;;13.60;99.90;;;;;;6235650;22;20464;-77
2022/09/25 00:15:22;;;;;;;19.67;18.07;;;13.60;99.90;;;;;;6237261;22;20473;-77
2022/09/25 00:17:50;;;;;;;20.77;18.70;;;13.50;99.90;;;;;;6236171;22;20476;-77
2022/09/25 00:20:18;;;;;;;18.97;17.37;;;13.50;99.90;;;;;;6248819;22;20537;-76
2022/09/25 00:22:45;;;;;;;18.40;16.80;;;13.80;99.90;;;;;;6237050;23;20500;-76
2022/09/25 00:25:14;;;;;;;19.93;18.33;;;13.50;99.90;;;;;;6235111;22;20483;-77
2022/09/25 00:27:44;;;;;;;21.10;19.40;;;13.50;99.90;;;;;;6236905;22;20917;-76
2022/09/25 00:30:13;;;;;;;17.07;15.67;;;13.40;99.90;;;;;;6237655;22;20435;-77
2022/09/25 00:32:41;;;;;;;17.30;16.00;;;13.40;99.90;;;;;;6236573;22;20442;-77
2022/09/25 00:35:08;;;;;;;16.80;15.60;;;13.40;99.90;;;;;;6236064;23;20493;-76
2022/09/25 00:37:36;;;;;;;18.10;16.70;;;13.40;99.90;;;;;;6240283;22;20492;-77
2022/09/25 00:40:03;;;;;;;15.40;14.20;;;13.30;99.90;;;;;;6236359;22;20853;-76
2022/09/25 00:42:31;;;;;;;15.63;14.38;;;13.40;99.90;;;;;;6236014;22;20438;-76
2022/09/25 00:45:00;;;;;;;15.07;13.87;;;13.30;99.90;;;;;;6238583;22;20197;-77
2022/09/25 00:47:45;;;;;;;13.60;12.50;;;13.30;99.90;;;;;;6236861;22;20504;-77
2022/09/25 00:50:20;;;;;;;13.55;12.55;;;13.30;99.90;;;;;;6232523;23;20529;-76
2022/09/25 00:52:49;;;;;;;12.63;11.63;;;13.30;99.90;;;;;;6234295;22;20186;-77
2022/09/25 00:55:18;;;;;;;12.90;11.90;;;13.30;99.90;;;;;;6242751;22;20536;-77
2022/09/25 00:57:48;;;;;;;11.93;11.03;;;13.30;99.90;;;;;;6237423;22;20526;-77
2022/09/25 01:00:17;;;;;;;12.60;11.60;;;13.30;99.90;;;;;;6236122;22;20495;-77
2022/09/25 01:02:52;;;;;;;12.50;11.33;;;13.30;99.90;;;;;;6236936;22;20443;-76
2022/09/25 01:05:22;;;;;;;12.50;11.50;;;13.30;99.90;;;;;;6234612;22;20461;-77
2022/09/25 01:07:51;;;;;;;13.60;12.50;;;13.40;99.90;;;;;;6236858;22;20431;-76
2022/09/25 01:10:20;;;;;;;12.60;11.70;;;13.30;99.90;;;;;;6233810;22;20434;-77
2022/09/25 01:12:49;;;;;;;12.53;11.60;;;13.40;99.90;;;;;;6234671;22;20439;-77
2022/09/25 01:15:20;;;;;;;13.83;12.83;;;13.40;99.90;;;;;;6237552;22;20486;-76
2022/09/25 01:17:57;;;;;;;14.97;13.80;;;13.40;99.90;;;;;;6237944;23;20436;-77
2022/09/25 01:20:44;;;;;;;13.37;12.27;;;13.30;99.90;;;;;;6236008;23;20545;-76
2022/09/25 01:23:23;;;;;;;12.77;11.77;;;13.40;99.90;;;;;;6226575;22;20516;-76
2022/09/25 01:26:09;;;;;;;14.07;12.88;;;13.30;99.90;;;;;;6236283;22;20236;-76
2022/09/25 01:28:52;;;;;;;15.07;13.87;;;13.30;99.90;;;;;;6233887;22;20281;-76
2022/09/25 01:31:32;;;;;;;14.00;12.90;;;13.30;99.90;;;;;;6230601;22;20766;-77
2022/09/25 01:34:06;;;;;;;14.55;13.35;;;13.30;99.90;;;;;;6228711;22;20426;-77
2022/09/25 01:36:38;;;;;;;16.40;14.97;;;13.30;99.90;;;;;;6262493;22;20695;-76
2022/09/25 01:39:15;;;;;;;14.23;13.20;;;13.30;99.90;;;;;;6241868;22;20466;-76
2022/09/25 01:41:49;;;;;;;14.47;13.30;;;13.30;99.90;;;;;;6248084;22;20434;-76
2022/09/25 01:44:24;;;;;;;14.10;12.90;;;13.30;99.90;;;;;;6235554;22;20430;-76
2022/09/25 01:46:54;;;;;;;14.00;12.80;;;13.40;99.90;;;;;;6234372;22;20442;-76
2022/09/25 01:49:25;;;;;;;13.30;12.23;;;13.40;99.90;;;;;;6235253;22;20478;-76
2022/09/25 01:51:54;;;;;;;13.87;12.77;;;13.50;99.90;;;;;;6237643;22;20462;-76
2022/09/25 01:54:27;;;;;;;14.67;13.50;;;13.50;99.90;;;;;;6238489;22;20835;-77
2022/09/25 01:56:58;;;;;;;13.10;12.00;;;13.50;99.90;;;;;;6233860;22;21062;-77
2022/09/25 01:59:34;;;;;;;14.20;13.00;;;13.50;99.90;;;;;;6232954;22;20275;-76
2022/09/25 02:02:04;;;;;;;13.77;12.77;;;13.60;99.90;;;;;;6240285;22;20451;-76
2022/09/25 02:04:36;;;;;;;15.20;14.00;;;13.60;99.90;;;;;;6236584;22;20472;-77
2022/09/25 02:07:06;;;;;;;12.50;11.60;;;13.60;99.90;;;;;;6226855;22;20442;-76
2022/09/25 02:09:38;;;;;;;12.37;11.40;;;13.60;99.90;;;;;;6229699;22;20513;-76
2022/09/25 02:12:09;;;;;;;13.10;12.10;;;13.60;99.90;;;;;;6236896;22;20451;-76
2022/09/25 02:14:44;;;;;;;13.20;12.20;;;13.60;99.90;;;;;;6238265;22;20454;-76
2022/09/25 02:20:30;;;;;;;12.00;11.00;;;13.60;99.90;;;;;;6234833;22;21035;-76
2022/09/25 02:22:53;;;;;;;13.20;12.17;;;13.60;99.90;;;;;;6231848;22;20442;-76
2022/09/25 02:25:27;;;;;;;12.23;11.30;;;13.60;99.90;;;;;;6225192;22;20823;-76
2022/09/25 02:27:54;;;;;;;12.73;11.63;;;13.60;99.90;;;;;;6219887;23;20572;-76
2022/09/25 02:30:23;;;;;;;11.60;10.70;;;13.70;99.90;;;;;;6224772;22;20436;-76
2022/09/25 02:32:50;;;;;;;11.47;10.67;;;13.60;99.90;;;;;;6234758;22;20455;-76
2022/09/25 02:35:17;;;;;;;10.97;10.10;;;13.60;99.90;;;;;;6231652;22;20459;-76
2022/09/25 02:37:44;;;;;;;11.50;10.60;;;13.60;99.90;;;;;;6241582;22;20446;-76
2022/09/25 02:40:11;;;;;;;10.80;10.00;;;13.60;99.90;;;;;;6236498;22;20466;-76
2022/09/25 02:42:44;;;;;;;10.63;9.80;;;13.60;99.90;;;;;;6232462;22;20465;-76
2022/09/25 02:45:21;;;;;;;10.30;9.50;;;13.60;99.90;;;;;;6233357;23;20464;-76
2022/09/25 02:48:00;;;;;;;12.87;11.87;;;13.60;99.90;;;;;;6242529;22;20819;-76
2022/09/25 02:50:36;;;;;;;11.13;10.20;;;13.60;99.90;;;;;;6232693;22;20553;-76
2022/09/25 02:53:12;;;;;;;10.40;9.57;;;13.60;99.90;;;;;;6237074;22;20851;-76
2022/09/25 02:55:41;;;;;;;11.80;10.82;;;13.60;99.90;;;;;;6236296;23;20457;-76
2022/09/25 02:58:14;;;;;;;10.73;9.93;;;13.70;99.90;;;;;;6236814;22;20275;-76
2022/09/25 03:00:43;;;;;;;11.10;10.20;;;13.50;99.90;;;;;;6237550;23;20518;-76
2022/09/25 03:03:14;;;;;;;10.70;9.80;;;13.50;99.90;;;;;;6238740;22;20850;-76
2022/09/25 03:05:42;;;;;;;13.90;12.80;;;13.50;99.90;;;;;;6239160;22;20477;-76
2022/09/25 03:10:55;;;;;;;11.10;10.20;;;13.50;99.90;;;;;;6234677;23;20447;-76
2022/09/25 03:13:26;;;;;;;10.93;10.10;;;13.60;99.90;;;;;;6233566;22;20434;-76
2022/09/25 03:15:58;;;;;;;13.13;12.03;;;13.60;99.90;;;;;;6235449;22;20464;-76
2022/09/25 03:18:27;;;;;;;12.30;11.40;;;13.60;99.90;;;;;;6237944;22;20439;-76
2022/09/25 03:20:54;;;;;;;12.50;11.50;;;13.60;99.90;;;;;;6248379;22;20464;-76
2022/09/25 03:23:21;;;;;;;11.97;11.07;;;13.60;99.90;;;;;;6245828;22;20473;-76
2022/09/25 03:25:48;;;;;;;11.40;10.43;;;13.60;99.90;;;;;;6234305;23;20486;-76
2022/09/25 03:28:15;;;;;;;12.70;11.70;;;13.60;99.90;;;;;;6236455;22;20781;-76
2022/09/25 03:30:43;;;;;;;11.73;10.70;;;13.60;99.90;;;;;;6231465;22;20516;-77
2022/09/25 03:33:13;;;;;;;12.60;11.50;;;13.60;99.90;;;;;;6235164;22;20461;-76
2022/09/25 03:35:42;;;;;;;13.33;12.23;;;13.60;99.90;;;;;;6237672;22;20517;-76
2022/09/25 03:38:09;;;;;;;13.47;12.37;;;13.70;99.90;;;;;;6233412;22;21002;-75
2022/09/25 03:40:36;;;;;;;12.77;11.70;;;13.70;99.90;;;;;;6233089;22;20557;-76
2022/09/25 03:43:03;;;;;;;13.40;12.23;;;13.70;99.90;;;;;;6234640;22;20520;-76
2022/09/25 03:45:30;;;;;;;12.73;11.60;;;13.60;99.90;;;;;;6237690;23;20549;-76
2022/09/25 03:47:57;;;;;;;13.17;12.17;;;13.50;99.90;;;;;;6237413;22;20446;-76
2022/09/25 03:50:24;;;;;;;13.37;12.27;;;13.50;99.90;;;;;;6236515;22;20509;-76
2022/09/25 03:52:52;;;;;;;13.90;12.70;;;13.40;99.90;;;;;;6235230;22;20521;-76
2022/09/25 03:55:21;;;;;;;15.73;14.40;;;13.40;99.90;;;;;;6225806;22;20479;-76
2022/09/25 03:57:48;;;;;;;14.50;13.23;;;13.30;99.90;;;;;;6232156;22;20181;-76
2022/09/25 04:00:15;;;;;;;14.73;13.55;;;13.20;99.90;;;;;;6238977;23;20461;-76
2022/09/25 04:02:42;;;;;;;15.77;14.37;;;13.20;99.90;;;;;;6236960;22;20660;-76
2022/09/25 04:05:10;;;;;;;15.77;14.52;;;13.20;99.90;;;;;;6238006;22;20538;-76
2022/09/25 04:07:37;;;;;;;14.90;13.80;;;13.20;99.90;;;;;;6239306;22;20241;-76
2022/09/25 04:10:06;;;;;;;15.17;13.80;;;13.30;99.90;;;;;;6236176;22;20817;-77
2022/09/25 04:12:33;;;;;;;15.10;13.90;;;13.30;99.90;;;;;;6249944;22;20433;-76
2022/09/25 04:15:01;;;;;;;15.37;14.17;;;13.30;99.90;;;;;;6236109;22;21279;-76
2022/09/25 04:17:28;;;;;;;13.93;12.93;;;13.40;99.90;;;;;;6235332;22;20440;-76
2022/09/25 04:19:55;;;;;;;14.67;13.37;;;13.40;99.90;;;;;;6238202;23;20549;-76
2022/09/25 04:22:22;;;;;;;15.07;13.87;;;13.50;99.90;;;;;;6237448;22;20530;-77
2022/09/25 04:24:50;;;;;;;14.03;13.00;;;13.50;99.90;;;;;;6226392;22;20446;-76
2022/09/25 04:27:21;;;;;;;14.30;12.80;;;13.50;99.90;;;;;;6230600;22;20530;-76
2022/09/25 04:29:48;;;;;;;15.77;14.47;;;13.60;99.90;;;;;;6241966;22;21097;-76
2022/09/25 04:35:02;;;;;;;14.60;13.40;;;13.60;99.90;;;;;;6230545;22;20461;-77
2022/09/25 04:37:29;;;;;;;14.70;13.60;;;13.60;99.90;;;;;;6236955;22;20446;-76
2022/09/25 04:39:57;;;;;;;16.43;14.97;;;13.50;99.90;;;;;;6237030;22;21043;-77
2022/09/25 04:42:26;;;;;;;16.30;14.80;;;13.60;99.90;;;;;;6234392;22;20505;-76
2022/09/25 04:44:54;;;;;;;16.47;15.07;;;13.60;99.90;;;;;;6236465;22;20492;-76
2022/09/25 04:47:21;;;;;;;14.60;13.40;;;13.50;99.90;;;;;;6236322;22;20529;-76
2022/09/25 04:49:49;;;;;;;15.07;13.70;;;13.60;99.90;;;;;;6236409;22;20442;-76
2022/09/25 04:52:17;;;;;;;15.83;14.43;;;13.60;99.90;;;;;;6237191;22;20439;-76
2022/09/25 04:54:44;;;;;;;15.10;13.90;;;13.60;99.90;;;;;;6236542;23;20469;-76
2022/09/25 04:57:15;;;;;;;15.70;14.40;;;13.60;99.90;;;;;;6231816;22;20430;-76
2022/09/25 04:59:43;;;;;;;15.53;14.13;;;13.60;99.90;;;;;;6235550;22;20463;-77
2022/09/25 05:02:10;;;;;;;15.97;14.60;;;13.60;99.90;;;;;;6237682;22;20495;-76
2022/09/25 05:04:38;;;;;;;15.67;14.37;;;13.60;99.90;;;;;;6242777;22;20454;-77
2022/09/25 05:07:05;;;;;;;15.83;14.53;;;13.60;99.90;;;;;;6236568;22;21170;-76
2022/09/25 05:09:32;;;;;;;16.23;14.70;;;13.50;99.90;;;;;;6238048;23;20438;-76
2022/09/25 05:11:59;;;;;;;17.47;16.00;;;13.40;99.90;;;;;;6235031;22;20466;-76
2022/09/25 05:14:26;;;;;;;17.30;15.85;;;13.40;99.90;;;;;;6235014;22;20806;-76
2022/09/25 05:16:54;;;;;;;17.20;15.80;;;13.30;99.90;;;;;;6235427;22;20228;-76
2022/09/25 05:19:21;;;;;;;17.07;15.50;;;13.30;99.90;;;;;;6238056;23;20236;-76
2022/09/25 05:21:48;;;;;;;16.55;15.15;;;13.30;99.90;;;;;;6233712;22;20438;-77
2022/09/25 05:24:15;;;;;;;17.90;16.40;;;13.30;99.90;;;;;;6228360;22;20289;-77
2022/09/25 05:26:42;;;;;;;17.80;16.30;;;13.30;99.90;;;;;;6236849;22;20470;-77
2022/09/25 05:29:09;;;;;;;17.93;16.33;;;13.30;99.90;;;;;;6238709;23;20909;-76
2022/09/25 05:31:37;;;;;;;18.00;16.47;;;13.30;99.90;;;;;;6244492;22;20433;-76
2022/09/25 05:34:05;;;;;;;18.60;16.90;;;13.30;99.90;;;;;;6234871;22;20490;-77
2022/09/25 05:36:33;;;;;;;17.23;15.93;;;13.30;99.90;;;;;;6237157;22;20434;-77
2022/09/25 05:39:00;;;;;;;17.43;16.03;;;13.30;99.90;;;;;;6236462;22;20438;-76
2022/09/25 05:41:27;;;;;;;16.97;15.27;;;13.30;99.90;;;;;;6233799;22;20960;-77
2022/09/25 05:43:54;;;;;;;18.30;16.70;;;13.30;99.90;;;;;;6228352;23;20441;-77
2022/09/25 05:46:21;;;;;;;17.97;16.47;;;13.20;99.90;;;;;;6229133;22;20430;-77
2022/09/25 05:48:48;;;;;;;18.97;17.40;;;13.20;99.90;;;;;;6238625;22;20462;-77
2022/09/25 05:51:16;;;;;;;17.13;15.60;;;13.20;99.90;;;;;;6235888;22;20587;-77
2022/09/25 05:53:43;;;;;;;17.50;16.00;;;13.20;99.90;;;;;;6238618;23;20462;-77
2022/09/25 05:56:10;;;;;;;16.87;15.27;;;13.10;99.90;;;;;;6236427;22;20475;-77
2022/09/25 05:58:37;;;;;;;17.73;16.23;;;13.00;99.90;;;;;;6232522;22;20465;-76
2022/09/25 06:01:06;;;;;;;19.05;17.45;;;12.90;99.90;;;;;;6227993;22;20303;-77
2022/09/25 06:03:33;;;;;;;20.13;18.53;;;12.90;99.90;;;;;;6221217;22;20663;-84
2022/09/25 06:06:01;;;;;;;21.23;19.23;;;12.90;99.90;;;;;;6232289;22;20450;-77
2022/09/25 06:08:30;;;;;;;20.52;18.50;;;12.90;99.90;;;;;;6236990;22;20229;-77
2022/09/25 06:10:59;;;;;;;21.73;19.83;;;12.90;99.90;;;;;;6234410;22;20219;-78
2022/09/25 06:13:26;;;;;;;21.63;19.83;;;12.80;99.90;;;;;;6231356;22;20241;-77
2022/09/25 06:15:53;;;;;;;21.50;19.58;;;12.90;99.90;;;;;;6237099;22;20279;-78
2022/09/25 06:18:22;;;;;;;23.00;20.90;;;12.90;99.90;;;;;;6238737;22;20241;-79
2022/09/25 06:20:50;;;;;;;22.50;20.40;;;13.00;99.90;;;;;;6239986;22;20217;-76
2022/09/25 06:23:18;;;;;;;22.75;20.48;;;13.00;99.90;;;;;;6221476;22;20977;-77
2022/09/25 06:25:46;;;;;;;23.50;21.27;;;13.00;99.90;;;;;;6234783;23;20574;-77
2022/09/25 06:28:13;;;;;;;22.42;20.42;;;13.00;99.90;;;;;;6235905;22;20517;-78
2022/09/25 06:30:41;;;;;;;25.70;23.20;;;12.90;99.90;;;;;;6232850;22;20189;-78
2022/09/25 06:33:11;;;;;;;22.95;20.80;;;12.90;99.90;;;;;;6235040;22;20932;-77
2022/09/25 06:35:42;;;;;;;23.02;20.73;;;12.90;99.90;;;;;;6238967;22;20193;-78
2022/09/25 06:38:09;;;;;;;23.30;21.20;;;12.90;99.90;;;;;;6238437;23;20808;-78
2022/09/25 06:40:36;;;;;;;21.67;19.65;;;12.90;99.90;;;;;;6232881;23;20559;-77
2022/09/25 06:43:06;;;;;;;22.38;20.27;;;12.90;99.90;;;;;;6222554;23;20189;-78
2022/09/25 06:45:34;;;;;;;19.60;17.77;;;12.90;99.90;;;;;;6236617;22;20564;-78
2022/09/25 06:48:02;;;;;;;21.48;19.27;;;12.80;99.90;;;;;;6232304;23;20781;-78
2022/09/25 06:50:35;;;;;;;21.10;19.00;;;12.90;99.90;;;;;;6235013;23;20189;-77
2022/09/25 06:53:02;;;;;;;20.02;18.20;;;12.90;99.90;;;;;;6231809;23;20195;-75
2022/09/25 06:55:31;;;;;;;20.88;18.83;;;12.90;99.90;;;;;;6232152;23;20205;-74
2022/09/25 06:57:58;;;;;;;19.83;17.88;;;12.90;99.90;;;;;;6233339;22;20212;-75
2022/09/25 07:00:27;;;;;;;19.30;17.40;;;12.90;99.90;;;;;;6223893;22;20629;-83
2022/09/25 07:05:38;;;;;;;19.33;17.52;;;13.00;99.90;;;;;;6233169;22;20211;-81
2022/09/25 07:08:05;;;;;;;19.83;17.93;;;13.10;99.90;;;;;;6225266;22;20640;-79
2022/09/25 07:10:32;;;;;;;19.03;17.23;;;13.20;99.90;;;;;;6225844;23;20808;-79
2022/09/25 07:12:59;;;;;;;18.20;16.60;;;13.20;99.90;;;;;;6235888;23;20450;-80
2022/09/25 07:15:28;;;;;;;18.10;16.43;;;13.30;99.90;;;;;;6237132;22;20544;-79
2022/09/25 07:17:55;;;;;;;19.57;17.70;;;13.30;99.90;;;;;;6233233;22;20920;-79
2022/09/25 07:20:22;;;;;;;18.90;16.97;;;13.30;99.90;;;;;;6229123;22;20463;-78
2022/09/25 07:22:49;;;;;;;18.47;16.77;;;13.30;99.90;;;;;;6232236;23;20481;-80
2022/09/25 07:25:16;;;;;;;19.30;17.60;;;13.40;99.90;;;;;;6220135;22;20868;-79
2022/09/25 07:27:43;;;;;;;16.53;15.00;;;13.50;99.90;;;;;;6240742;22;20518;-79
2022/09/25 07:30:11;;;;;;;17.87;16.37;;;13.60;99.90;;;;;;6239733;22;20481;-80
2022/09/25 07:32:39;;;;;;;17.60;16.00;;;13.60;99.90;;;;;;6226011;22;20465;-79
2022/09/25 07:35:07;;;;;;;16.40;14.90;;;13.70;99.90;;;;;;6226425;22;21000;-80
2022/09/25 07:37:34;;;;;;;15.07;13.67;;;13.70;99.90;;;;;;6238029;23;20432;-79
2022/09/25 07:40:01;;;;;;;15.17;13.87;;;13.70;99.90;;;;;;6234531;22;20859;-81
2022/09/25 07:42:29;;;;;;;14.77;13.47;;;13.70;99.90;;;;;;6224359;22;20475;-74
2022/09/25 07:44:56;;;;;;;14.48;13.27;;;13.70;99.90;;;;;;6215416;22;20450;-79
2022/09/25 07:47:23;;;;;;;15.20;13.90;;;13.70;99.90;;;;;;6234994;23;20189;-79
2022/09/25 07:49:52;;;;;;;14.73;13.50;;;13.80;99.90;;;;;;6238903;23;20431;-79
2022/09/25 07:52:19;;;;;;;13.80;12.70;;;13.90;99.90;;;;;;6237674;23;20479;-79
2022/09/25 07:54:46;;;;;;;14.17;12.93;;;14.00;99.90;;;;;;6238126;23;20966;-79
2022/09/25 07:57:13;;;;;;;12.87;11.77;;;14.00;99.90;;;;;;6238028;23;20443;-79
2022/09/25 07:59:40;;;;;;;13.80;12.63;;;14.00;99.90;;;;;;6237660;23;20455;-79
2022/09/25 08:02:08;;;;;;;14.50;13.40;;;14.00;99.90;;;;;;6236629;22;20545;-79
2022/09/25 08:04:35;;;;;;;14.50;13.10;;;14.00;99.90;;;;;;6238826;22;20473;-79
2022/09/25 08:07:03;;;;;;;13.33;12.23;;;14.10;99.90;;;;;;6237810;23;20421;-79
2022/09/25 08:09:30;;;;;;;13.10;11.80;;;14.10;99.90;;;;;;6238441;23;20486;-79
2022/09/25 08:11:57;;;;;;;12.07;11.00;;;14.10;99.90;;;;;;6236918;23;20444;-79
2022/09/25 08:14:25;;;;;;;11.73;10.73;;;14.10;99.90;;;;;;6223536;22;20484;-79
2022/09/25 08:16:53;;;;;;;10.60;9.80;;;14.20;99.90;;;;;;6226478;23;20448;-79
2022/09/25 08:19:22;;;;;;;11.20;10.30;;;14.30;99.90;;;;;;6237187;23;20441;-79
2022/09/25 08:21:49;;;;;;;10.33;9.40;;;14.40;99.90;;;;;;6237507;23;20495;-79
2022/09/25 08:24:17;;;;;;;10.50;9.70;;;14.40;99.90;;;;;;6238201;23;20457;-78
2022/09/25 08:26:46;;;;;;;11.20;10.30;;;14.40;99.90;;;;;;6236479;23;20463;-79
2022/09/25 08:29:13;;;;;;;10.00;9.17;;;14.40;99.90;;;;;;6235709;23;20915;-78
2022/09/25 08:31:40;;;;;;;10.23;8.80;;;14.40;99.90;;;;;;6226682;23;20524;-79
2022/09/25 08:34:09;;;;;;;10.77;9.87;;;14.50;99.90;;;;;;6237245;22;20520;-78
2022/09/25 08:36:36;;;;;;;10.53;9.70;;;14.50;99.90;;;;;;6239260;23;20939;-78
2022/09/25 08:39:03;;;;;;;11.37;10.50;;;14.60;99.90;;;;;;6238750;23;20509;-78
2022/09/25 08:41:34;;;;;;;11.70;10.80;;;14.70;99.90;;;;;;6237277;23;20465;-78
2022/09/25 08:44:06;;;;;;;11.40;10.40;;;14.70;99.90;;;;;;6239852;23;20465;-78
2022/09/25 08:49:30;;;;;;;11.07;10.17;;;14.80;99.90;;;;;;6237313;23;20458;-78
2022/09/25 08:52:01;;;;;;;11.13;10.23;;;14.90;99.90;;;;;;6233341;23;20426;-78
2022/09/25 08:54:31;;;;;;;12.43;11.23;;;14.90;99.90;;;;;;6238217;22;20514;-78
2022/09/25 08:57:02;;;;;;;11.57;10.60;;;14.80;99.90;;;;;;6235030;23;20444;-78
2022/09/25 08:59:34;;;;;;;11.90;10.90;;;14.70;99.90;;;;;;6238884;23;20501;-78
2022/09/25 09:02:10;;;;;;;12.30;11.30;;;14.60;99.90;;;;;;6238772;22;20465;-78
2022/09/25 09:04:43;;;;;;;12.93;11.10;;;14.50;99.90;;;;;;6238216;23;20504;-78
2022/09/25 09:07:14;;;;;;;12.80;11.70;;;14.40;99.90;;;;;;6226995;23;21029;-77
2022/09/25 09:09:46;;;;;;;12.07;10.87;;;14.40;99.90;;;;;;6231944;23;20448;-78
2022/09/25 09:12:18;;;;;;;11.17;10.27;;;14.50;99.90;;;;;;6230952;23;20467;-77
2022/09/25 09:14:48;;;;;;;12.13;11.07;;;14.60;99.90;;;;;;6239455;23;20546;-79
2022/09/25 09:17:18;;;;;;;12.03;10.93;;;14.70;99.90;;;;;;6239626;23;21111;-79
2022/09/25 09:19:51;;;;;;;13.47;12.27;;;14.70;99.90;;;;;;6238303;23;20465;-77
2022/09/25 09:22:24;;;;;;;12.17;10.97;;;14.70;99.90;;;;;;6231961;23;20463;-77
2022/09/25 09:24:58;;;;;;;13.03;11.93;;;14.70;99.90;;;;;;6237792;22;20999;-77
2022/09/25 09:27:37;;;;;;;13.30;12.10;;;14.70;99.90;;;;;;6239681;23;20457;-78
2022/09/25 09:30:13;;;;;;;12.33;11.30;;;14.70;99.90;;;;;;6239185;23;20427;-77
2022/09/25 09:33:03;;;;;;;13.50;12.20;;;14.70;99.90;;;;;;6237984;23;21127;-78
2022/09/25 09:35:41;;;;;;;14.03;12.93;;;14.80;99.90;;;;;;6230170;23;20445;-77
2022/09/25 09:38:22;;;;;;;14.10;12.83;;;14.80;99.90;;;;;;6236469;23;21021;-77
2022/09/25 09:41:07;;;;;;;13.90;12.80;;;14.80;99.90;;;;;;6238930;23;20803;-77
2022/09/25 09:43:46;;;;;;;13.23;12.13;;;14.80;99.90;;;;;;6229357;22;20503;-78
2022/09/25 09:46:21;;;;;;;14.83;13.50;;;14.80;99.90;;;;;;6235792;23;20446;-77
2022/09/25 09:48:59;;;;;;;15.40;14.10;;;14.90;99.90;;;;;;6239648;23;20440;-77
2022/09/25 09:51:33;;;;;;;14.97;13.67;;;14.90;99.90;;;;;;6239289;23;20421;-77
2022/09/25 09:54:05;;;;;;;14.90;13.50;;;14.90;99.90;;;;;;6238455;23;20471;-77
2022/09/25 09:56:34;;;;;;;13.73;12.53;;;14.90;99.90;;;;;;6240171;23;20449;-77
2022/09/25 09:59:05;;;;;;;15.10;13.90;;;15.00;99.90;;;;;;6235498;23;20445;-77
2022/09/25 10:01:36;;;;;;;14.20;12.90;;;15.10;99.90;;;;;;6230209;23;20477;-77
2022/09/25 10:04:06;;;;;;;12.43;11.33;;;15.10;99.90;;;;;;6239108;22;21005;-77
2022/09/25 10:06:49;;;;;;;15.87;14.23;;;15.30;99.90;;;;;;6229008;23;21020;-77
2022/09/25 10:09:17;;;;;;;14.33;13.20;;;15.40;99.90;;;;;;6226996;23;20423;-77
2022/09/25 10:11:46;;;;;;;14.57;13.20;;;15.50;99.90;;;;;;6235962;23;20483;-77
2022/09/25 10:14:20;;;;;;;14.67;13.47;;;15.60;99.90;;;;;;6238603;22;20475;-77
2022/09/25 10:16:49;;;;;;;15.17;13.90;;;15.60;99.90;;;;;;6239453;23;20486;-78
2022/09/25 10:19:18;;;;;;;14.70;13.50;;;15.60;99.90;;;;;;6238634;23;20428;-77
2022/09/25 10:21:50;;;;;;;14.93;13.60;;;15.60;99.90;;;;;;6238252;23;20472;-77
2022/09/25 10:24:51;;;;;;;15.00;13.80;;;15.70;99.90;;;;;;6238504;23;21032;-77
2022/09/25 10:27:37;;;;;;;15.73;14.43;;;15.70;99.90;;;;;;6235106;23;20434;-77
2022/09/25 10:30:19;;;;;;;15.20;13.90;;;15.90;99.90;;;;;;6230967;23;20429;-77
2022/09/25 10:32:53;;;;;;;14.93;13.53;;;16.00;99.90;;;;;;6238104;22;20432;-76
2022/09/25 10:35:22;;;;;;;16.30;14.70;;;16.10;99.90;;;;;;6239542;23;20436;-77
2022/09/25 10:37:52;;;;;;;14.40;13.30;;;16.10;99.90;;;;;;6238502;23;20838;-77
2022/09/25 10:40:30;;;;;;;15.30;13.90;;;16.10;99.90;;;;;;6239228;23;20516;-77
2022/09/25 10:43:19;;;;;;;15.83;14.53;;;16.00;99.90;;;;;;6238318;22;20469;-77
2022/09/25 10:45:51;;;;;;;14.13;12.93;;;15.80;99.90;;;;;;6238911;23;20501;-77
2022/09/25 10:51:17;;;;;;;14.90;13.70;;;15.60;99.90;;;;;;6230697;23;20441;-77
2022/09/25 10:53:45;;;;;;;15.97;14.37;;;15.50;99.90;;;;;;6238485;23;20499;-77
2022/09/25 10:56:17;;;;;;;15.30;14.10;;;15.50;99.90;;;;;;6237429;23;20459;-77
2022/09/25 10:58:47;;;;;;;15.43;13.90;;;15.40;99.90;;;;;;6237995;23;20517;-76
2022/09/25 11:01:16;;;;;;;14.90;13.53;;;15.30;99.90;;;;;;6237000;23;20458;-77
2022/09/25 11:03:49;;;;;;;15.97;14.07;;;15.30;99.90;;;;;;6238185;22;20461;-77
2022/09/25 11:06:22;;;;;;;15.60;14.40;;;15.40;99.90;;;;;;6238714;23;20866;-77
2022/09/25 11:09:02;;;;;;;14.07;12.87;;;15.50;99.90;;;;;;6237532;23;21029;-78
2022/09/25 11:11:30;;;;;;;14.93;13.63;;;15.60;99.90;;;;;;6231651;23;20461;-77
2022/09/25 11:13:59;;;;;;;15.20;14.00;;;15.60;99.90;;;;;;6238980;23;20456;-77
2022/09/25 11:16:46;;;;;;;13.87;12.57;;;15.70;99.90;;;;;;6236753;23;20430;-78
2022/09/25 11:19:15;;;;;;;14.57;13.37;;;15.80;99.90;;;;;;6227575;23;20511;-78
2022/09/25 11:21:50;;;;;;;15.13;13.83;;;16.10;99.90;;;;;;6237996;23;20500;-77
2022/09/25 11:24:23;;;;;;;15.80;14.53;;;16.10;99.90;;;;;;6227502;23;20928;-77
2022/09/25 11:26:57;;;;;;;15.13;13.93;;;16.20;99.90;;;;;;6238367;23;20429;-77
2022/09/25 11:29:32;;;;;;;16.87;15.30;;;16.30;99.90;;;;;;6237759;23;20477;-78
2022/09/25 11:32:09;;;;;;;15.60;14.40;;;16.40;99.90;;;;;;6237777;23;20474;-78
2022/09/25 11:34:48;;;;;;;14.10;12.90;;;16.50;99.90;;;;;;6238848;22;20963;-78
2022/09/25 11:37:22;;;;;;;16.27;14.97;;;16.60;99.90;;;;;;6236365;23;20444;-78
2022/09/25 11:42:48;;;;;;;16.43;14.93;;;16.70;99.90;;;;;;6230319;22;20493;-77
2022/09/25 11:45:20;;;;;;;14.73;13.53;;;16.70;99.90;;;;;;6237168;23;20437;-78
2022/09/25 11:47:55;;;;;;;15.53;14.23;;;16.80;99.90;;;;;;6230105;23;20416;-77
2022/09/25 11:50:31;;;;;;;16.60;15.23;;;16.90;99.90;;;;;;6236952;23;20487;-78
2022/09/25 11:53:07;;;;;;;15.30;14.00;;;17.10;99.90;;;;;;6232920;22;20461;-78
2022/09/25 11:55:46;;;;;;;15.43;14.03;;;17.30;99.90;;;;;;6238508;23;20662;-78
2022/09/25 11:58:44;;;;;;;14.63;13.43;;;17.40;99.90;;;;;;6238426;23;20414;-78
2022/09/25 12:01:24;;;;;;;14.20;12.80;;;17.60;99.90;;;;;;6232875;23;20988;-78
2022/09/25 12:04:37;;;;;;;13.43;12.33;;;17.70;99.90;;;;;;6234079;23;20937;-77
2022/09/25 12:07:23;;;;;;;12.77;11.57;;;17.60;99.90;;;;;;6238640;23;20890;-78
2022/09/25 12:10:03;;;;;;;13.47;12.27;;;17.50;99.90;;;;;;6232333;23;20813;-77
2022/09/25 12:12:38;;;;;;;14.73;13.43;;;17.30;99.90;;;;;;6219997;22;20434;-77
2022/09/25 12:15:16;;;;;;;13.67;12.40;;;17.10;99.90;;;;;;6238316;23;20532;-77
2022/09/25 12:17:50;;;;;;;13.80;12.60;;;17.00;99.90;;;;;;6239244;23;20421;-78
2022/09/25 12:20:25;;;;;;;14.63;13.27;;;17.00;99.90;;;;;;6239608;23;20773;-78
2022/09/25 12:23:02;;;;;;;11.73;10.77;;;17.00;99.90;;;;;;6239282;22;20467;-77
2022/09/25 12:25:46;;;;;;;10.00;9.30;;;17.00;99.90;;;;;;6239750;23;20430;-77
2022/09/25 12:28:23;;;;;;;9.87;9.13;;;16.90;99.90;;;;;;6235873;23;20445;-77
2022/09/25 12:30:59;;;;;;;8.10;7.40;;;16.90;99.90;;;;;;6235770;22;20509;-77
2022/09/25 12:33:34;;;;;;;7.67;7.07;;;16.80;99.90;;;;;;6239230;23;21175;-77
2022/09/25 12:36:08;;;;;;;8.20;7.60;;;16.80;99.90;;;;;;6238466;23;20452;-77
2022/09/25 12:38:40;;;;;;;7.23;6.60;;;16.80;99.90;;;;;;6239698;23;20518;-77
2022/09/25 12:41:16;;;;;;;6.27;5.80;;;16.90;99.90;;;;;;6239494;23;20430;-78
2022/09/25 12:43:51;;;;;;;4.70;4.30;;;17.10;99.90;;;;;;6226578;22;20543;-79
2022/09/25 12:46:24;;;;;;;5.10;4.80;;;17.30;99.90;;;;;;6239419;23;20506;-78
2022/09/25 12:48:55;;;;;;;5.27;4.87;;;17.50;99.90;;;;;;6235221;23;20449;-78
2022/09/25 12:51:28;;;;;;;5.07;4.67;;;17.80;99.90;;;;;;6233953;23;20929;-78
2022/09/25 12:53:58;;;;;;;5.33;4.93;;;18.10;99.90;;;;;;6239949;22;20470;-78
2022/09/25 12:56:31;;;;;;;5.40;5.00;;;18.40;99.90;;;;;;6239120;23;20503;-78
2022/09/25 12:59:09;;;;;;;4.50;4.10;;;18.50;99.90;;;;;;6220797;23;21000;-78
2022/09/25 13:01:45;;;;;;;5.00;4.60;;;18.50;99.90;;;;;;6238722;23;20522;-76
2022/09/25 13:04:40;;;;;;;5.80;5.37;;;18.50;99.90;;;;;;6233443;22;20461;-78
2022/09/25 13:07:16;;;;;;;5.70;5.30;;;18.50;99.90;;;;;;6235953;23;20418;-78